sensor_id;sensor_type;location;lat;lon;timestamp;P1;durP1;ratioP1;P2;durP2;ratioP2
62927;SDS011;51070;52.236;-0.892;2023-08-07T00:01:30;3.40;;;2.00;;
62927;SDS011;51070;52.236;-0.892;2023-08-07T00:03:55;4.10;;;2.10;;
62927;SDS011;51070;52.236;-0.892;2023-08-07T00:06:20;3.00;;;1.60;;
62927;SDS011;51070;52.236;-0.892;2023-08-07T00:08:46;3.00;;;1.60;;
62927;SDS011;51070;52.236;-0.892;2023-08-07T00:11:11;1.60;;;1.50;;
62927;SDS011;51070;52.236;-0.892;2023-08-07T00:13:36;2.00;;;1.30;;
62927;SDS011;51070;52.236;-0.892;2023-08-07T00:16:02;1.80;;;1.10;;
62927;SDS011;51070;52.236;-0.892;2023-08-07T00:18:29;2.50;;;1.50;;
62927;SDS011;51070;52.236;-0.892;2023-08-07T00:20:54;2.50;;;1.70;;
62927;SDS011;51070;52.236;-0.892;2023-08-07T00:23:20;2.60;;;1.50;;
62927;SDS011;51070;52.236;-0.892;2023-08-07T00:25:45;1.60;;;1.20;;
62927;SDS011;51070;52.236;-0.892;2023-08-07T00:28:11;2.10;;;1.20;;
62927;SDS011;51070;52.236;-0.892;2023-08-07T00:30:36;2.60;;;1.60;;
62927;SDS011;51070;52.236;-0.892;2023-08-07T00:33:01;1.90;;;1.20;;
62927;SDS011;51070;52.236;-0.892;2023-08-07T00:35:27;2.00;;;1.30;;
62927;SDS011;51070;52.236;-0.892;2023-08-07T00:37:53;2.50;;;1.70;;
62927;SDS011;51070;52.236;-0.892;2023-08-07T00:40:18;2.20;;;1.40;;
62927;SDS011;51070;52.236;-0.892;2023-08-07T00:42:44;2.40;;;1.70;;
62927;SDS011;51070;52.236;-0.892;2023-08-07T00:45:09;3.40;;;1.50;;
62927;SDS011;51070;52.236;-0.892;2023-08-07T00:47:35;2.30;;;1.30;;
62927;SDS011;51070;52.236;-0.892;2023-08-07T00:50:03;3.50;;;1.40;;
62927;SDS011;51070;52.236;-0.892;2023-08-07T00:52:29;4.20;;;1.50;;
62927;SDS011;51070;52.236;-0.892;2023-08-07T00:54:55;2.30;;;1.30;;
62927;SDS011;51070;52.236;-0.892;2023-08-07T00:57:21;3.50;;;1.40;;
62927;SDS011;51070;52.236;-0.892;2023-08-07T00:59:48;2.10;;;1.70;;
62927;SDS011;51070;52.236;-0.892;2023-08-07T01:02:14;4.80;;;1.60;;
62927;SDS011;51070;52.236;-0.892;2023-08-07T01:04:40;2.20;;;1.40;;
62927;SDS011;51070;52.236;-0.892;2023-08-07T01:07:05;2.40;;;1.30;;
62927;SDS011;51070;52.236;-0.892;2023-08-07T01:09:31;3.60;;;1.30;;
62927;SDS011;51070;52.236;-0.892;2023-08-07T01:14:51;1.90;;;1.40;;
62927;SDS011;51070;52.236;-0.892;2023-08-07T01:17:23;1.70;;;1.10;;
62927;SDS011;51070;52.236;-0.892;2023-08-07T01:19:50;2.60;;;1.50;;
62927;SDS011;51070;52.236;-0.892;2023-08-07T01:22:18;2.50;;;1.50;;
62927;SDS011;51070;52.236;-0.892;2023-08-07T01:24:45;2.00;;;1.40;;
62927;SDS011;51070;52.236;-0.892;2023-08-07T01:32:14;1.90;;;1.60;;
62927;SDS011;51070;52.236;-0.892;2023-08-07T01:34:46;2.90;;;1.60;;
62927;SDS011;51070;52.236;-0.892;2023-08-07T01:37:13;4.20;;;1.70;;
62927;SDS011;51070;52.236;-0.892;2023-08-07T01:39:39;4.80;;;2.10;;
62927;SDS011;51070;52.236;-0.892;2023-08-07T01:42:06;2.30;;;1.70;;
62927;SDS011;51070;52.236;-0.892;2023-08-07T01:44:32;2.80;;;1.50;;
62927;SDS011;51070;52.236;-0.892;2023-08-07T01:46:58;2.60;;;1.80;;
62927;SDS011;51070;52.236;-0.892;2023-08-07T01:49:23;4.30;;;2.00;;
62927;SDS011;51070;52.236;-0.892;2023-08-07T01:51:49;1.60;;;1.30;;
62927;SDS011;51070;52.236;-0.892;2023-08-07T01:54:14;2.60;;;1.50;;
62927;SDS011;51070;52.236;-0.892;2023-08-07T01:56:40;2.60;;;1.60;;
62927;SDS011;51070;52.236;-0.892;2023-08-07T01:59:05;3.50;;;1.60;;
62927;SDS011;51070;52.236;-0.892;2023-08-07T02:01:30;3.80;;;1.90;;
62927;SDS011;51070;52.236;-0.892;2023-08-07T02:03:56;1.90;;;1.50;;
62927;SDS011;51070;52.236;-0.892;2023-08-07T02:06:21;2.90;;;1.40;;
62927;SDS011;51070;52.236;-0.892;2023-08-07T02:08:46;3.40;;;1.80;;
62927;SDS011;51070;52.236;-0.892;2023-08-07T02:11:12;3.30;;;1.50;;
62927;SDS011;51070;52.236;-0.892;2023-08-07T02:13:38;3.70;;;1.50;;
62927;SDS011;51070;52.236;-0.892;2023-08-07T02:16:03;4.90;;;1.70;;
62927;SDS011;51070;52.236;-0.892;2023-08-07T02:18:28;3.00;;;1.80;;
62927;SDS011;51070;52.236;-0.892;2023-08-07T02:20:54;3.10;;;1.40;;
62927;SDS011;51070;52.236;-0.892;2023-08-07T02:23:19;2.60;;;1.50;;
62927;SDS011;51070;52.236;-0.892;2023-08-07T02:25:45;3.80;;;1.80;;
62927;SDS011;51070;52.236;-0.892;2023-08-07T02:28:11;2.00;;;1.60;;
62927;SDS011;51070;52.236;-0.892;2023-08-07T02:30:36;2.00;;;1.50;;
62927;SDS011;51070;52.236;-0.892;2023-08-07T02:33:02;4.70;;;1.90;;
62927;SDS011;51070;52.236;-0.892;2023-08-07T02:35:27;2.70;;;1.70;;
62927;SDS011;51070;52.236;-0.892;2023-08-07T02:37:52;3.20;;;1.40;;
62927;SDS011;51070;52.236;-0.892;2023-08-07T02:40:18;3.30;;;1.80;;
62927;SDS011;51070;52.236;-0.892;2023-08-07T02:42:44;5.20;;;2.00;;
62927;SDS011;51070;52.236;-0.892;2023-08-07T02:45:09;4.60;;;3.20;;
62927;SDS011;51070;52.236;-0.892;2023-08-07T02:47:35;2.00;;;1.60;;
62927;SDS011;51070;52.236;-0.892;2023-08-07T02:50:00;3.60;;;1.80;;
62927;SDS011;51070;52.236;-0.892;2023-08-07T02:52:26;3.40;;;1.50;;
62927;SDS011;51070;52.236;-0.892;2023-08-07T02:54:51;4.40;;;2.70;;
62927;SDS011;51070;52.236;-0.892;2023-08-07T02:57:16;2.50;;;1.70;;
62927;SDS011;51070;52.236;-0.892;2023-08-07T02:59:42;2.50;;;1.90;;
62927;SDS011;51070;52.236;-0.892;2023-08-07T03:02:07;4.80;;;2.00;;
62927;SDS011;51070;52.236;-0.892;2023-08-07T03:04:33;3.00;;;1.50;;
62927;SDS011;51070;52.236;-0.892;2023-08-07T03:06:58;2.60;;;1.60;;
62927;SDS011;51070;52.236;-0.892;2023-08-07T03:09:24;3.00;;;1.70;;
62927;SDS011;51070;52.236;-0.892;2023-08-07T03:11:49;6.30;;;2.60;;
62927;SDS011;51070;52.236;-0.892;2023-08-07T03:14:14;2.50;;;1.60;;
62927;SDS011;51070;52.236;-0.892;2023-08-07T03:16:40;2.90;;;1.80;;
62927;SDS011;51070;52.236;-0.892;2023-08-07T03:19:05;3.70;;;1.80;;
62927;SDS011;51070;52.236;-0.892;2023-08-07T03:21:31;2.30;;;1.70;;
62927;SDS011;51070;52.236;-0.892;2023-08-07T03:23:56;3.20;;;1.60;;
62927;SDS011;51070;52.236;-0.892;2023-08-07T03:26:21;5.00;;;2.40;;
62927;SDS011;51070;52.236;-0.892;2023-08-07T03:28:47;4.50;;;2.10;;
62927;SDS011;51070;52.236;-0.892;2023-08-07T03:31:13;3.10;;;1.80;;
62927;SDS011;51070;52.236;-0.892;2023-08-07T03:33:39;3.60;;;1.90;;
62927;SDS011;51070;52.236;-0.892;2023-08-07T03:36:04;5.90;;;2.00;;
62927;SDS011;51070;52.236;-0.892;2023-08-07T03:38:30;3.50;;;1.80;;
62927;SDS011;51070;52.236;-0.892;2023-08-07T03:40:55;4.30;;;1.60;;
62927;SDS011;51070;52.236;-0.892;2023-08-07T03:43:20;3.90;;;1.60;;
62927;SDS011;51070;52.236;-0.892;2023-08-07T03:45:46;2.90;;;1.80;;
62927;SDS011;51070;52.236;-0.892;2023-08-07T03:48:12;2.20;;;1.80;;
62927;SDS011;51070;52.236;-0.892;2023-08-07T03:50:37;2.10;;;1.50;;
62927;SDS011;51070;52.236;-0.892;2023-08-07T03:53:03;3.60;;;2.00;;
62927;SDS011;51070;52.236;-0.892;2023-08-07T03:55:31;3.00;;;1.80;;
62927;SDS011;51070;52.236;-0.892;2023-08-07T03:57:57;5.00;;;2.20;;
62927;SDS011;51070;52.236;-0.892;2023-08-07T04:00:22;2.80;;;1.70;;
62927;SDS011;51070;52.236;-0.892;2023-08-07T04:02:48;3.80;;;1.90;;
62927;SDS011;51070;52.236;-0.892;2023-08-07T04:05:13;3.60;;;1.60;;
62927;SDS011;51070;52.236;-0.892;2023-08-07T04:07:38;3.60;;;2.10;;
62927;SDS011;51070;52.236;-0.892;2023-08-07T04:10:04;3.30;;;1.60;;
62927;SDS011;51070;52.236;-0.892;2023-08-07T04:12:30;2.50;;;1.90;;
62927;SDS011;51070;52.236;-0.892;2023-08-07T04:14:56;3.90;;;1.70;;
62927;SDS011;51070;52.236;-0.892;2023-08-07T04:17:21;3.30;;;1.40;;
62927;SDS011;51070;52.236;-0.892;2023-08-07T04:19:47;3.20;;;1.90;;
62927;SDS011;51070;52.236;-0.892;2023-08-07T04:22:12;3.90;;;2.20;;
62927;SDS011;51070;52.236;-0.892;2023-08-07T04:24:37;5.50;;;2.00;;
62927;SDS011;51070;52.236;-0.892;2023-08-07T04:27:03;3.80;;;2.60;;
62927;SDS011;51070;52.236;-0.892;2023-08-07T04:29:28;2.90;;;2.00;;
62927;SDS011;51070;52.236;-0.892;2023-08-07T04:31:54;3.00;;;1.90;;
62927;SDS011;51070;52.236;-0.892;2023-08-07T04:34:19;3.00;;;1.90;;
62927;SDS011;51070;52.236;-0.892;2023-08-07T04:36:44;3.30;;;2.20;;
62927;SDS011;51070;52.236;-0.892;2023-08-07T04:39:10;2.60;;;1.60;;
62927;SDS011;51070;52.236;-0.892;2023-08-07T04:41:36;3.50;;;2.00;;
62927;SDS011;51070;52.236;-0.892;2023-08-07T04:44:02;2.90;;;2.00;;
62927;SDS011;51070;52.236;-0.892;2023-08-07T04:46:27;3.50;;;1.90;;
62927;SDS011;51070;52.236;-0.892;2023-08-07T04:48:53;2.50;;;1.60;;
62927;SDS011;51070;52.236;-0.892;2023-08-07T04:51:19;2.40;;;1.80;;
62927;SDS011;51070;52.236;-0.892;2023-08-07T04:53:44;4.20;;;2.20;;
62927;SDS011;51070;52.236;-0.892;2023-08-07T04:56:10;5.70;;;1.90;;
62927;SDS011;51070;52.236;-0.892;2023-08-07T04:58:35;3.70;;;2.20;;
62927;SDS011;51070;52.236;-0.892;2023-08-07T05:01:01;2.70;;;2.00;;
62927;SDS011;51070;52.236;-0.892;2023-08-07T05:03:26;4.10;;;2.10;;
62927;SDS011;51070;52.236;-0.892;2023-08-07T05:05:59;2.80;;;2.00;;
62927;SDS011;51070;52.236;-0.892;2023-08-07T05:08:25;5.10;;;2.10;;
62927;SDS011;51070;52.236;-0.892;2023-08-07T05:10:51;6.00;;;2.20;;
62927;SDS011;51070;52.236;-0.892;2023-08-07T05:13:17;2.20;;;1.90;;
62927;SDS011;51070;52.236;-0.892;2023-08-07T05:15:42;4.20;;;2.10;;
62927;SDS011;51070;52.236;-0.892;2023-08-07T05:18:07;3.60;;;2.50;;
62927;SDS011;51070;52.236;-0.892;2023-08-07T05:20:33;5.80;;;1.70;;
62927;SDS011;51070;52.236;-0.892;2023-08-07T05:22:58;2.70;;;1.70;;
62927;SDS011;51070;52.236;-0.892;2023-08-07T05:25:23;3.00;;;1.70;;
62927;SDS011;51070;52.236;-0.892;2023-08-07T05:27:49;4.50;;;2.20;;
62927;SDS011;51070;52.236;-0.892;2023-08-07T05:30:14;3.40;;;2.00;;
62927;SDS011;51070;52.236;-0.892;2023-08-07T05:32:40;4.10;;;2.40;;
62927;SDS011;51070;52.236;-0.892;2023-08-07T05:35:06;4.50;;;2.00;;
62927;SDS011;51070;52.236;-0.892;2023-08-07T05:37:36;3.70;;;2.10;;
62927;SDS011;51070;52.236;-0.892;2023-08-07T05:40:01;3.50;;;1.90;;
62927;SDS011;51070;52.236;-0.892;2023-08-07T05:42:28;3.50;;;2.80;;
62927;SDS011;51070;52.236;-0.892;2023-08-07T05:44:53;6.00;;;2.30;;
62927;SDS011;51070;52.236;-0.892;2023-08-07T05:47:19;4.90;;;2.40;;
62927;SDS011;51070;52.236;-0.892;2023-08-07T05:49:44;3.70;;;2.00;;
62927;SDS011;51070;52.236;-0.892;2023-08-07T05:52:10;4.20;;;2.20;;
62927;SDS011;51070;52.236;-0.892;2023-08-07T05:54:35;3.30;;;1.90;;
62927;SDS011;51070;52.236;-0.892;2023-08-07T05:57:00;5.30;;;2.00;;
62927;SDS011;51070;52.236;-0.892;2023-08-07T05:59:26;2.40;;;1.70;;
62927;SDS011;51070;52.236;-0.892;2023-08-07T06:01:53;2.00;;;1.40;;
62927;SDS011;51070;52.236;-0.892;2023-08-07T06:04:18;2.40;;;1.50;;
62927;SDS011;51070;52.236;-0.892;2023-08-07T06:06:44;2.30;;;1.60;;
62927;SDS011;51070;52.236;-0.892;2023-08-07T06:09:11;2.20;;;1.30;;
62927;SDS011;51070;52.236;-0.892;2023-08-07T06:11:37;5.00;;;1.70;;
62927;SDS011;51070;52.236;-0.892;2023-08-07T06:14:03;2.10;;;1.40;;
62927;SDS011;51070;52.236;-0.892;2023-08-07T06:16:28;2.80;;;1.30;;
62927;SDS011;51070;52.236;-0.892;2023-08-07T06:18:53;2.10;;;1.50;;
62927;SDS011;51070;52.236;-0.892;2023-08-07T06:21:19;2.80;;;1.40;;
62927;SDS011;51070;52.236;-0.892;2023-08-07T06:23:45;3.70;;;1.80;;
62927;SDS011;51070;52.236;-0.892;2023-08-07T06:26:12;4.60;;;1.50;;
62927;SDS011;51070;52.236;-0.892;2023-08-07T06:28:38;2.10;;;1.30;;
62927;SDS011;51070;52.236;-0.892;2023-08-07T06:31:04;5.10;;;1.60;;
62927;SDS011;51070;52.236;-0.892;2023-08-07T06:33:34;1.80;;;1.40;;
62927;SDS011;51070;52.236;-0.892;2023-08-07T06:36:00;4.40;;;1.40;;
62927;SDS011;51070;52.236;-0.892;2023-08-07T06:38:27;1.90;;;1.20;;
62927;SDS011;51070;52.236;-0.892;2023-08-07T06:40:52;2.10;;;1.30;;
62927;SDS011;51070;52.236;-0.892;2023-08-07T06:43:18;1.60;;;1.10;;
62927;SDS011;51070;52.236;-0.892;2023-08-07T06:45:43;2.40;;;1.20;;
62927;SDS011;51070;52.236;-0.892;2023-08-07T06:48:11;2.40;;;1.10;;
62927;SDS011;51070;52.236;-0.892;2023-08-07T06:50:36;1.40;;;1.10;;
62927;SDS011;51070;52.236;-0.892;2023-08-07T06:53:02;2.00;;;1.00;;
62927;SDS011;51070;52.236;-0.892;2023-08-07T06:55:27;2.30;;;1.10;;
62927;SDS011;51070;52.236;-0.892;2023-08-07T06:57:52;3.60;;;1.30;;
62927;SDS011;51070;52.236;-0.892;2023-08-07T07:00:18;1.30;;;1.00;;
62927;SDS011;51070;52.236;-0.892;2023-08-07T07:02:43;2.50;;;1.20;;
62927;SDS011;51070;52.236;-0.892;2023-08-07T07:05:09;1.90;;;1.20;;
62927;SDS011;51070;52.236;-0.892;2023-08-07T07:07:34;1.30;;;1.00;;
62927;SDS011;51070;52.236;-0.892;2023-08-07T07:10:00;2.60;;;1.00;;
62927;SDS011;51070;52.236;-0.892;2023-08-07T07:12:28;3.60;;;1.20;;
62927;SDS011;51070;52.236;-0.892;2023-08-07T07:14:54;1.40;;;1.00;;
62927;SDS011;51070;52.236;-0.892;2023-08-07T07:17:19;2.60;;;1.10;;
62927;SDS011;51070;52.236;-0.892;2023-08-07T07:19:44;2.30;;;1.00;;
62927;SDS011;51070;52.236;-0.892;2023-08-07T07:22:10;2.10;;;1.10;;
62927;SDS011;51070;52.236;-0.892;2023-08-07T07:24:35;1.70;;;1.20;;
62927;SDS011;51070;52.236;-0.892;2023-08-07T07:27:01;2.60;;;1.20;;
62927;SDS011;51070;52.236;-0.892;2023-08-07T07:29:26;2.90;;;1.60;;
62927;SDS011;51070;52.236;-0.892;2023-08-07T07:31:51;1.70;;;1.10;;
62927;SDS011;51070;52.236;-0.892;2023-08-07T07:34:18;2.30;;;1.10;;
62927;SDS011;51070;52.236;-0.892;2023-08-07T07:36:44;3.10;;;1.30;;
62927;SDS011;51070;52.236;-0.892;2023-08-07T07:39:10;2.90;;;1.30;;
62927;SDS011;51070;52.236;-0.892;2023-08-07T07:41:35;3.10;;;1.20;;
62927;SDS011;51070;52.236;-0.892;2023-08-07T07:44:01;1.90;;;1.30;;
62927;SDS011;51070;52.236;-0.892;2023-08-07T07:46:27;2.10;;;1.10;;
62927;SDS011;51070;52.236;-0.892;2023-08-07T07:48:53;2.00;;;1.30;;
62927;SDS011;51070;52.236;-0.892;2023-08-07T07:51:18;2.60;;;1.00;;
62927;SDS011;51070;52.236;-0.892;2023-08-07T07:53:43;2.20;;;1.20;;
62927;SDS011;51070;52.236;-0.892;2023-08-07T07:56:09;2.70;;;1.10;;
62927;SDS011;51070;52.236;-0.892;2023-08-07T07:58:35;1.00;;;0.90;;
62927;SDS011;51070;52.236;-0.892;2023-08-07T08:01:00;3.20;;;1.10;;
62927;SDS011;51070;52.236;-0.892;2023-08-07T08:03:26;2.50;;;1.10;;
62927;SDS011;51070;52.236;-0.892;2023-08-07T08:05:52;2.40;;;1.00;;
62927;SDS011;51070;52.236;-0.892;2023-08-07T08:08:18;1.80;;;1.00;;
62927;SDS011;51070;52.236;-0.892;2023-08-07T08:10:44;2.30;;;1.00;;
62927;SDS011;51070;52.236;-0.892;2023-08-07T08:13:12;2.00;;;1.10;;
62927;SDS011;51070;52.236;-0.892;2023-08-07T08:15:37;2.70;;;1.50;;
62927;SDS011;51070;52.236;-0.892;2023-08-07T08:18:03;2.30;;;1.10;;
62927;SDS011;51070;52.236;-0.892;2023-08-07T08:20:28;2.90;;;1.00;;
62927;SDS011;51070;52.236;-0.892;2023-08-07T08:22:56;1.60;;;1.00;;
62927;SDS011;51070;52.236;-0.892;2023-08-07T08:25:21;2.80;;;0.90;;
62927;SDS011;51070;52.236;-0.892;2023-08-07T08:27:47;3.80;;;1.00;;
62927;SDS011;51070;52.236;-0.892;2023-08-07T08:30:12;2.50;;;1.20;;
62927;SDS011;51070;52.236;-0.892;2023-08-07T08:32:38;2.50;;;1.00;;
62927;SDS011;51070;52.236;-0.892;2023-08-07T08:35:07;2.30;;;1.10;;
62927;SDS011;51070;52.236;-0.892;2023-08-07T08:37:33;1.80;;;1.00;;
62927;SDS011;51070;52.236;-0.892;2023-08-07T08:39:58;1.70;;;1.00;;
62927;SDS011;51070;52.236;-0.892;2023-08-07T08:42:24;2.20;;;1.10;;
62927;SDS011;51070;52.236;-0.892;2023-08-07T08:44:51;1.10;;;0.80;;
62927;SDS011;51070;52.236;-0.892;2023-08-07T08:47:18;3.30;;;1.20;;
62927;SDS011;51070;52.236;-0.892;2023-08-07T08:49:47;1.60;;;0.80;;
62927;SDS011;51070;52.236;-0.892;2023-08-07T08:52:19;0.60;;;0.60;;
62927;SDS011;51070;52.236;-0.892;2023-08-07T08:54:46;2.30;;;0.90;;
62927;SDS011;51070;52.236;-0.892;2023-08-07T08:57:12;2.80;;;1.10;;
62927;SDS011;51070;52.236;-0.892;2023-08-07T08:59:38;1.70;;;1.00;;
62927;SDS011;51070;52.236;-0.892;2023-08-07T09:02:05;1.20;;;0.80;;
62927;SDS011;51070;52.236;-0.892;2023-08-07T09:06:57;2.60;;;1.00;;
62927;SDS011;51070;52.236;-0.892;2023-08-07T09:09:23;1.70;;;1.10;;
62927;SDS011;51070;52.236;-0.892;2023-08-07T09:11:49;1.00;;;0.90;;
62927;SDS011;51070;52.236;-0.892;2023-08-07T09:14:17;2.00;;;1.20;;
62927;SDS011;51070;52.236;-0.892;2023-08-07T09:16:50;2.30;;;0.90;;
62927;SDS011;51070;52.236;-0.892;2023-08-07T09:19:16;2.00;;;1.00;;
62927;SDS011;51070;52.236;-0.892;2023-08-07T09:21:41;2.40;;;0.90;;
62927;SDS011;51070;52.236;-0.892;2023-08-07T09:24:06;1.30;;;0.60;;
62927;SDS011;51070;52.236;-0.892;2023-08-07T09:26:32;3.40;;;1.20;;
62927;SDS011;51070;52.236;-0.892;2023-08-07T09:29:01;1.90;;;0.90;;
62927;SDS011;51070;52.236;-0.892;2023-08-07T09:31:28;1.70;;;0.90;;
62927;SDS011;51070;52.236;-0.892;2023-08-07T09:34:00;1.20;;;0.90;;
62927;SDS011;51070;52.236;-0.892;2023-08-07T09:36:26;1.40;;;0.80;;
62927;SDS011;51070;52.236;-0.892;2023-08-07T09:38:51;1.80;;;0.80;;
62927;SDS011;51070;52.236;-0.892;2023-08-07T09:41:17;1.30;;;0.90;;
62927;SDS011;51070;52.236;-0.892;2023-08-07T09:43:44;1.30;;;0.80;;
62927;SDS011;51070;52.236;-0.892;2023-08-07T09:46:09;2.90;;;0.90;;
62927;SDS011;51070;52.236;-0.892;2023-08-07T09:48:44;1.90;;;0.90;;
62927;SDS011;51070;52.236;-0.892;2023-08-07T09:51:10;1.00;;;0.60;;
62927;SDS011;51070;52.236;-0.892;2023-08-07T09:53:36;1.60;;;1.10;;
62927;SDS011;51070;52.236;-0.892;2023-08-07T09:56:01;2.60;;;1.10;;
62927;SDS011;51070;52.236;-0.892;2023-08-07T09:58:27;3.10;;;1.00;;
62927;SDS011;51070;52.236;-0.892;2023-08-07T10:00:53;2.00;;;1.20;;
62927;SDS011;51070;52.236;-0.892;2023-08-07T10:03:21;1.80;;;1.10;;
62927;SDS011;51070;52.236;-0.892;2023-08-07T10:05:47;2.10;;;1.00;;
62927;SDS011;51070;52.236;-0.892;2023-08-07T10:08:13;2.10;;;0.90;;
62927;SDS011;51070;52.236;-0.892;2023-08-07T10:10:39;3.20;;;1.10;;
62927;SDS011;51070;52.236;-0.892;2023-08-07T10:13:04;3.60;;;1.20;;
62927;SDS011;51070;52.236;-0.892;2023-08-07T10:15:31;2.40;;;1.20;;
62927;SDS011;51070;52.236;-0.892;2023-08-07T10:17:58;3.70;;;1.60;;
62927;SDS011;51070;52.236;-0.892;2023-08-07T10:20:24;3.30;;;1.40;;
62927;SDS011;51070;52.236;-0.892;2023-08-07T10:22:52;1.90;;;1.10;;
62927;SDS011;51070;52.236;-0.892;2023-08-07T10:27:46;2.10;;;1.80;;
62927;SDS011;51070;52.236;-0.892;2023-08-07T10:30:14;2.00;;;1.10;;
62927;SDS011;51070;52.236;-0.892;2023-08-07T10:32:43;2.10;;;1.30;;
62927;SDS011;51070;52.236;-0.892;2023-08-07T10:35:22;2.90;;;1.50;;
62927;SDS011;51070;52.236;-0.892;2023-08-07T10:37:54;1.60;;;1.30;;
62927;SDS011;51070;52.236;-0.892;2023-08-07T10:40:20;2.10;;;1.30;;
62927;SDS011;51070;52.236;-0.892;2023-08-07T10:42:59;2.80;;;1.10;;
62927;SDS011;51070;52.236;-0.892;2023-08-07T10:45:38;2.20;;;1.10;;
62927;SDS011;51070;52.236;-0.892;2023-08-07T10:48:07;4.50;;;1.30;;
62927;SDS011;51070;52.236;-0.892;2023-08-07T10:50:50;1.60;;;1.00;;
62927;SDS011;51070;52.236;-0.892;2023-08-07T10:56:05;3.50;;;1.30;;
62927;SDS011;51070;52.236;-0.892;2023-08-07T10:58:34;3.50;;;1.70;;
62927;SDS011;51070;52.236;-0.892;2023-08-07T11:03:58;2.30;;;1.30;;
62927;SDS011;51070;52.236;-0.892;2023-08-07T11:06:32;3.00;;;1.10;;
62927;SDS011;51070;52.236;-0.892;2023-08-07T11:09:00;4.00;;;1.80;;
62927;SDS011;51070;52.236;-0.892;2023-08-07T11:11:29;3.70;;;2.20;;
62927;SDS011;51070;52.236;-0.892;2023-08-07T11:13:55;2.90;;;1.80;;
62927;SDS011;51070;52.236;-0.892;2023-08-07T11:16:21;3.80;;;2.10;;
62927;SDS011;51070;52.236;-0.892;2023-08-07T11:18:47;1.90;;;1.10;;
62927;SDS011;51070;52.236;-0.892;2023-08-07T11:21:13;2.70;;;1.20;;
62927;SDS011;51070;52.236;-0.892;2023-08-07T11:23:38;2.20;;;0.90;;
62927;SDS011;51070;52.236;-0.892;2023-08-07T11:26:05;2.20;;;1.10;;
62927;SDS011;51070;52.236;-0.892;2023-08-07T11:28:31;1.80;;;0.90;;
62927;SDS011;51070;52.236;-0.892;2023-08-07T11:30:57;2.60;;;1.30;;
62927;SDS011;51070;52.236;-0.892;2023-08-07T11:33:24;5.00;;;3.00;;
62927;SDS011;51070;52.236;-0.892;2023-08-07T11:35:50;5.00;;;2.60;;
62927;SDS011;51070;52.236;-0.892;2023-08-07T11:38:36;4.20;;;1.60;;
62927;SDS011;51070;52.236;-0.892;2023-08-07T11:43:31;1.60;;;1.10;;
62927;SDS011;51070;52.236;-0.892;2023-08-07T11:45:58;4.30;;;1.40;;
62927;SDS011;51070;52.236;-0.892;2023-08-07T11:48:29;3.00;;;1.70;;
62927;SDS011;51070;52.236;-0.892;2023-08-07T11:50:56;3.10;;;1.90;;
62927;SDS011;51070;52.236;-0.892;2023-08-07T11:53:23;5.80;;;1.90;;
62927;SDS011;51070;52.236;-0.892;2023-08-07T11:55:55;3.90;;;1.70;;
62927;SDS011;51070;52.236;-0.892;2023-08-07T11:58:26;2.00;;;1.10;;
62927;SDS011;51070;52.236;-0.892;2023-08-07T12:00:52;4.00;;;1.50;;
62927;SDS011;51070;52.236;-0.892;2023-08-07T12:03:26;1.60;;;1.10;;
62927;SDS011;51070;52.236;-0.892;2023-08-07T12:05:54;3.40;;;1.60;;
62927;SDS011;51070;52.236;-0.892;2023-08-07T12:11:02;1.90;;;1.40;;
62927;SDS011;51070;52.236;-0.892;2023-08-07T12:13:29;5.10;;;1.90;;
62927;SDS011;51070;52.236;-0.892;2023-08-07T12:15:57;3.50;;;1.70;;
62927;SDS011;51070;52.236;-0.892;2023-08-07T12:18:23;2.90;;;1.40;;
62927;SDS011;51070;52.236;-0.892;2023-08-07T12:20:52;6.10;;;1.80;;
62927;SDS011;51070;52.236;-0.892;2023-08-07T12:23:22;4.10;;;1.60;;
62927;SDS011;51070;52.236;-0.892;2023-08-07T12:25:47;4.50;;;2.30;;
62927;SDS011;51070;52.236;-0.892;2023-08-07T12:28:14;4.90;;;2.20;;
62927;SDS011;51070;52.236;-0.892;2023-08-07T12:30:42;4.20;;;2.50;;
62927;SDS011;51070;52.236;-0.892;2023-08-07T12:33:10;4.50;;;2.90;;
62927;SDS011;51070;52.236;-0.892;2023-08-07T12:35:36;3.30;;;1.70;;
62927;SDS011;51070;52.236;-0.892;2023-08-07T12:38:01;4.00;;;2.40;;
62927;SDS011;51070;52.236;-0.892;2023-08-07T12:40:28;5.10;;;3.30;;
62927;SDS011;51070;52.236;-0.892;2023-08-07T12:42:55;6.00;;;2.80;;
62927;SDS011;51070;52.236;-0.892;2023-08-07T12:45:21;3.10;;;1.70;;
62927;SDS011;51070;52.236;-0.892;2023-08-07T12:47:47;3.20;;;1.30;;
62927;SDS011;51070;52.236;-0.892;2023-08-07T12:50:12;2.50;;;0.90;;
62927;SDS011;51070;52.236;-0.892;2023-08-07T12:52:38;2.60;;;1.00;;
62927;SDS011;51070;52.236;-0.892;2023-08-07T12:55:04;4.10;;;1.00;;
62927;SDS011;51070;52.236;-0.892;2023-08-07T12:57:31;3.00;;;1.10;;
62927;SDS011;51070;52.236;-0.892;2023-08-07T12:59:56;3.90;;;1.60;;
62927;SDS011;51070;52.236;-0.892;2023-08-07T13:02:22;3.70;;;1.00;;
62927;SDS011;51070;52.236;-0.892;2023-08-07T13:04:47;2.20;;;1.20;;
62927;SDS011;51070;52.236;-0.892;2023-08-07T13:07:13;3.70;;;1.60;;
62927;SDS011;51070;52.236;-0.892;2023-08-07T13:09:38;1.80;;;1.10;;
62927;SDS011;51070;52.236;-0.892;2023-08-07T13:12:04;3.00;;;1.40;;
62927;SDS011;51070;52.236;-0.892;2023-08-07T13:14:29;2.30;;;1.20;;
62927;SDS011;51070;52.236;-0.892;2023-08-07T13:16:55;2.00;;;1.10;;
62927;SDS011;51070;52.236;-0.892;2023-08-07T13:19:20;2.00;;;1.10;;
62927;SDS011;51070;52.236;-0.892;2023-08-07T13:21:46;4.10;;;1.30;;
62927;SDS011;51070;52.236;-0.892;2023-08-07T13:24:12;2.40;;;1.10;;
62927;SDS011;51070;52.236;-0.892;2023-08-07T13:26:37;1.80;;;1.00;;
62927;SDS011;51070;52.236;-0.892;2023-08-07T13:29:09;2.20;;;1.20;;
62927;SDS011;51070;52.236;-0.892;2023-08-07T13:31:38;3.60;;;1.20;;
62927;SDS011;51070;52.236;-0.892;2023-08-07T13:34:03;3.50;;;1.70;;
62927;SDS011;51070;52.236;-0.892;2023-08-07T13:36:33;2.50;;;1.20;;
62927;SDS011;51070;52.236;-0.892;2023-08-07T13:39:01;2.30;;;0.90;;
62927;SDS011;51070;52.236;-0.892;2023-08-07T13:41:27;2.90;;;1.30;;
62927;SDS011;51070;52.236;-0.892;2023-08-07T13:43:52;1.80;;;1.00;;
62927;SDS011;51070;52.236;-0.892;2023-08-07T13:46:18;3.40;;;1.20;;
62927;SDS011;51070;52.236;-0.892;2023-08-07T13:48:44;2.70;;;1.30;;
62927;SDS011;51070;52.236;-0.892;2023-08-07T13:51:10;3.40;;;1.50;;
62927;SDS011;51070;52.236;-0.892;2023-08-07T13:53:36;2.80;;;1.90;;
62927;SDS011;51070;52.236;-0.892;2023-08-07T13:56:02;2.50;;;1.50;;
62927;SDS011;51070;52.236;-0.892;2023-08-07T13:58:28;2.70;;;1.60;;
62927;SDS011;51070;52.236;-0.892;2023-08-07T14:00:55;3.10;;;1.30;;
62927;SDS011;51070;52.236;-0.892;2023-08-07T14:03:21;2.70;;;1.60;;
62927;SDS011;51070;52.236;-0.892;2023-08-07T14:05:47;3.10;;;1.40;;
62927;SDS011;51070;52.236;-0.892;2023-08-07T14:08:12;3.40;;;1.70;;
62927;SDS011;51070;52.236;-0.892;2023-08-07T14:10:37;2.60;;;1.40;;
62927;SDS011;51070;52.236;-0.892;2023-08-07T14:13:05;3.50;;;1.20;;
62927;SDS011;51070;52.236;-0.892;2023-08-07T14:15:31;4.00;;;1.10;;
62927;SDS011;51070;52.236;-0.892;2023-08-07T14:17:56;1.90;;;1.00;;
62927;SDS011;51070;52.236;-0.892;2023-08-07T14:20:22;2.30;;;1.00;;
62927;SDS011;51070;52.236;-0.892;2023-08-07T14:22:48;3.50;;;1.20;;
62927;SDS011;51070;52.236;-0.892;2023-08-07T14:25:15;3.40;;;1.80;;
62927;SDS011;51070;52.236;-0.892;2023-08-07T14:27:40;2.30;;;1.30;;
62927;SDS011;51070;52.236;-0.892;2023-08-07T14:30:06;3.10;;;1.60;;
62927;SDS011;51070;52.236;-0.892;2023-08-07T14:32:32;3.30;;;1.70;;
62927;SDS011;51070;52.236;-0.892;2023-08-07T14:34:57;3.40;;;1.80;;
62927;SDS011;51070;52.236;-0.892;2023-08-07T14:37:23;2.20;;;1.50;;
62927;SDS011;51070;52.236;-0.892;2023-08-07T14:39:48;2.90;;;1.20;;
62927;SDS011;51070;52.236;-0.892;2023-08-07T14:42:13;2.20;;;1.50;;
62927;SDS011;51070;52.236;-0.892;2023-08-07T14:44:39;4.20;;;1.30;;
62927;SDS011;51070;52.236;-0.892;2023-08-07T14:47:04;2.40;;;1.50;;
62927;SDS011;51070;52.236;-0.892;2023-08-07T14:49:29;3.40;;;1.80;;
62927;SDS011;51070;52.236;-0.892;2023-08-07T14:51:55;3.80;;;1.50;;